createdAt,value
2022-10-12T00:08:51.200Z,24.80
2022-10-12T00:24:00.980Z,51.00
2022-10-12T00:39:06.662Z,156.50
2022-10-12T00:54:14.872Z,29.20
2022-10-12T01:09:19.477Z,47.40
2022-10-12T01:24:44.904Z,26.60
2022-10-12T01:39:54.755Z,21.10
2022-10-12T01:55:17.629Z,59.50
2022-10-12T02:10:38.869Z,55.80
2022-10-12T02:25:42.445Z,31.50
2022-10-12T02:40:54.615Z,23.80
2022-10-12T02:56:05.823Z,28.60
2022-10-12T03:11:12.542Z,21.00
2022-10-12T03:26:16.091Z,16.70
2022-10-12T03:41:19.346Z,21.50
2022-10-12T03:56:22.294Z,21.00
2022-10-12T04:11:25.612Z,16.70
2022-10-12T04:26:29.073Z,22.00
2022-10-12T04:41:32.474Z,23.30
2022-10-12T04:56:35.455Z,18.30
2022-10-12T05:11:38.436Z,37.10
2022-10-12T05:26:41.822Z,31.60
2022-10-12T05:41:44.906Z,30.00
2022-10-12T05:56:47.875Z,28.00
2022-10-12T06:11:50.863Z,32.40
2022-10-12T06:26:54.201Z,23.80
2022-10-12T06:41:57.961Z,21.10
2022-10-12T06:57:07.474Z,30.80
2022-10-12T07:12:10.764Z,27.90
2022-10-12T07:27:14.229Z,32.20
2022-10-12T07:42:19.612Z,22.70
2022-10-12T07:57:22.904Z,20.10
2022-10-12T08:12:26.120Z,20.60
2022-10-12T08:27:32.587Z,15.20
2022-10-12T08:42:54.073Z,14.50
2022-10-12T08:57:57.683Z,8.90
2022-10-12T09:13:43.378Z,11.70
2022-10-12T09:28:52.467Z,22.20
2022-10-12T09:43:59.440Z,10.90
2022-10-12T09:59:08.106Z,6.50
2022-10-12T10:14:15.950Z,8.80
2022-10-12T10:29:22.524Z,10.90
2022-10-12T10:44:34.404Z,13.00
2022-10-12T11:00:26.035Z,4.30
2022-10-12T11:15:44.464Z,8.70
2022-10-12T11:30:51.856Z,8.20
2022-10-12T11:45:58.750Z,5.10
2022-10-12T12:01:13.177Z,6.60
2022-10-12T12:16:16.083Z,6.20
2022-10-12T12:31:24.923Z,4.70
2022-10-12T12:47:00.557Z,5.90
2022-10-12T13:02:24.681Z,6.60
2022-10-12T13:18:28.583Z,4.00
2022-10-12T13:49:22.105Z,4.60
2022-10-12T14:04:28.976Z,10.50
2022-10-12T14:19:32.382Z,36.50
2022-10-12T14:34:41.613Z,24.90
2022-10-12T14:49:47.079Z,9.10
2022-10-12T15:04:51.866Z,21.30
2022-10-12T15:19:55.886Z,26.00
2022-10-12T15:34:59.232Z,39.20
2022-10-12T15:50:02.589Z,69.60
2022-10-12T16:05:27.069Z,46.90
2022-10-12T16:20:32.868Z,66.60
2022-10-12T16:35:40.104Z,118.30
2022-10-12T16:50:44.129Z,121.90
2022-10-12T17:05:47.431Z,123.40
2022-10-12T17:20:52.922Z,54.60
2022-10-12T17:35:56.711Z,73.90
2022-10-12T17:51:10.517Z,120.60
2022-10-12T18:06:21.064Z,35.60
2022-10-12T18:21:27.354Z,71.30
2022-10-12T18:36:31.527Z,53.90
2022-10-12T18:51:38.135Z,60.80
2022-10-12T19:06:43.244Z,108.80
2022-10-12T19:21:47.570Z,109.10
2022-10-12T19:36:51.246Z,132.30
2022-10-12T19:51:54.297Z,106.40
2022-10-12T20:26:11.044Z,47.00
2022-10-12T20:41:17.503Z,68.30
2022-10-12T20:56:21.079Z,50.80
2022-10-12T21:11:25.556Z,49.00
2022-10-12T21:26:30.867Z,55.40
2022-10-12T21:41:34.123Z,62.20
2022-10-12T21:56:38.194Z,48.10
2022-10-12T22:11:41.154Z,54.60
2022-10-12T22:26:46.437Z,53.20
2022-10-12T22:41:49.723Z,91.50
2022-10-12T22:56:53.204Z,73.60
2022-10-12T23:11:56.247Z,79.70
2022-10-12T23:26:59.324Z,72.90
2022-10-12T23:42:02.539Z,64.10
2022-10-12T23:57:13.973Z,53.40
